sensor_id;sensor_type;location;lat;lon;timestamp;P1;durP1;ratioP1;P2;durP2;ratioP2
12756;SDS011;31601;48.042;12.240;2022-08-21T00:00:39;6.35;;;4.43;;
12756;SDS011;31601;48.042;12.240;2022-08-21T00:03:06;7.57;;;4.22;;
12756;SDS011;31601;48.042;12.240;2022-08-21T00:05:36;5.70;;;4.53;;
12756;SDS011;31601;48.042;12.240;2022-08-21T00:08:04;5.38;;;4.25;;
12756;SDS011;31601;48.042;12.240;2022-08-21T00:10:31;6.88;;;4.88;;
12756;SDS011;31601;48.042;12.240;2022-08-21T00:12:59;5.65;;;4.60;;
12756;SDS011;31601;48.042;12.240;2022-08-21T00:15:28;5.20;;;4.13;;
12756;SDS011;31601;48.042;12.240;2022-08-21T00:17:56;5.68;;;4.55;;
12756;SDS011;31601;48.042;12.240;2022-08-21T00:20:24;9.45;;;4.15;;
12756;SDS011;31601;48.042;12.240;2022-08-21T00:22:51;6.82;;;3.95;;
12756;SDS011;31601;48.042;12.240;2022-08-21T00:25:18;8.70;;;4.45;;
12756;SDS011;31601;48.042;12.240;2022-08-21T00:27:45;8.45;;;4.55;;
12756;SDS011;31601;48.042;12.240;2022-08-21T00:30:14;10.10;;;4.60;;
12756;SDS011;31601;48.042;12.240;2022-08-21T00:32:42;7.95;;;4.22;;
12756;SDS011;31601;48.042;12.240;2022-08-21T00:35:12;8.48;;;5.85;;
12756;SDS011;31601;48.042;12.240;2022-08-21T00:37:39;10.23;;;4.75;;
12756;SDS011;31601;48.042;12.240;2022-08-21T00:40:09;6.05;;;4.35;;
12756;SDS011;31601;48.042;12.240;2022-08-21T00:42:38;7.43;;;4.57;;
12756;SDS011;31601;48.042;12.240;2022-08-21T00:45:05;5.47;;;4.20;;
12756;SDS011;31601;48.042;12.240;2022-08-21T00:47:34;5.80;;;4.65;;
12756;SDS011;31601;48.042;12.240;2022-08-21T00:50:01;13.02;;;4.60;;
12756;SDS011;31601;48.042;12.240;2022-08-21T00:52:29;5.25;;;3.85;;
12756;SDS011;31601;48.042;12.240;2022-08-21T00:54:58;15.23;;;5.00;;
12756;SDS011;31601;48.042;12.240;2022-08-21T00:57:27;16.85;;;5.95;;
12756;SDS011;31601;48.042;12.240;2022-08-21T00:59:57;9.63;;;5.07;;
12756;SDS011;31601;48.042;12.240;2022-08-21T01:02:26;9.05;;;4.80;;
12756;SDS011;31601;48.042;12.240;2022-08-21T01:04:54;17.20;;;5.70;;
12756;SDS011;31601;48.042;12.240;2022-08-21T01:07:20;12.55;;;5.35;;
12756;SDS011;31601;48.042;12.240;2022-08-21T01:09:47;37.70;;;6.32;;
12756;SDS011;31601;48.042;12.240;2022-08-21T01:12:14;6.85;;;5.03;;
12756;SDS011;31601;48.042;12.240;2022-08-21T01:14:41;12.35;;;4.80;;
12756;SDS011;31601;48.042;12.240;2022-08-21T01:17:08;6.05;;;4.57;;
12756;SDS011;31601;48.042;12.240;2022-08-21T01:19:37;6.20;;;4.55;;
12756;SDS011;31601;48.042;12.240;2022-08-21T01:22:05;5.25;;;4.35;;
12756;SDS011;31601;48.042;12.240;2022-08-21T01:24:32;6.13;;;4.35;;
12756;SDS011;31601;48.042;12.240;2022-08-21T01:26:59;8.55;;;4.07;;
12756;SDS011;31601;48.042;12.240;2022-08-21T01:29:28;4.82;;;3.70;;
12756;SDS011;31601;48.042;12.240;2022-08-21T01:31:58;4.78;;;3.95;;
12756;SDS011;31601;48.042;12.240;2022-08-21T01:34:25;6.15;;;4.05;;
12756;SDS011;31601;48.042;12.240;2022-08-21T01:36:51;9.23;;;4.15;;
12756;SDS011;31601;48.042;12.240;2022-08-21T01:39:19;7.43;;;4.22;;
12756;SDS011;31601;48.042;12.240;2022-08-21T01:41:46;7.68;;;4.15;;
12756;SDS011;31601;48.042;12.240;2022-08-21T01:44:12;15.20;;;10.73;;
12756;SDS011;31601;48.042;12.240;2022-08-21T01:46:39;11.95;;;8.05;;
12756;SDS011;31601;48.042;12.240;2022-08-21T01:49:05;4.72;;;4.00;;
12756;SDS011;31601;48.042;12.240;2022-08-21T01:51:32;6.00;;;4.10;;
12756;SDS011;31601;48.042;12.240;2022-08-21T01:53:59;7.20;;;4.35;;
12756;SDS011;31601;48.042;12.240;2022-08-21T01:56:27;4.93;;;3.55;;
12756;SDS011;31601;48.042;12.240;2022-08-21T01:58:53;5.88;;;4.38;;
12756;SDS011;31601;48.042;12.240;2022-08-21T02:01:20;8.18;;;4.25;;
12756;SDS011;31601;48.042;12.240;2022-08-21T02:03:46;6.50;;;4.13;;
12756;SDS011;31601;48.042;12.240;2022-08-21T02:06:13;6.43;;;4.43;;
12756;SDS011;31601;48.042;12.240;2022-08-21T02:08:42;4.40;;;4.00;;
12756;SDS011;31601;48.042;12.240;2022-08-21T02:11:09;4.50;;;4.10;;
12756;SDS011;31601;48.042;12.240;2022-08-21T02:13:37;4.00;;;3.60;;
12756;SDS011;31601;48.042;12.240;2022-08-21T02:16:03;5.40;;;3.63;;
12756;SDS011;31601;48.042;12.240;2022-08-21T02:18:31;5.75;;;3.50;;
12756;SDS011;31601;48.042;12.240;2022-08-21T02:20:58;4.22;;;3.83;;
12756;SDS011;31601;48.042;12.240;2022-08-21T02:23:24;4.53;;;3.15;;
12756;SDS011;31601;48.042;12.240;2022-08-21T02:25:51;6.13;;;3.63;;
12756;SDS011;31601;48.042;12.240;2022-08-21T02:28:17;3.90;;;3.28;;
12756;SDS011;31601;48.042;12.240;2022-08-21T02:30:46;4.93;;;3.13;;
12756;SDS011;31601;48.042;12.240;2022-08-21T02:33:13;4.63;;;3.30;;
12756;SDS011;31601;48.042;12.240;2022-08-21T02:35:41;4.82;;;3.15;;
12756;SDS011;31601;48.042;12.240;2022-08-21T02:38:10;3.35;;;2.80;;
12756;SDS011;31601;48.042;12.240;2022-08-21T02:40:40;3.80;;;2.90;;
12756;SDS011;31601;48.042;12.240;2022-08-21T02:43:09;3.78;;;2.70;;
12756;SDS011;31601;48.042;12.240;2022-08-21T02:45:35;4.82;;;2.88;;
12756;SDS011;31601;48.042;12.240;2022-08-21T02:48:06;4.05;;;2.97;;
12756;SDS011;31601;48.042;12.240;2022-08-21T02:50:34;7.97;;;2.95;;
12756;SDS011;31601;48.042;12.240;2022-08-21T02:53:02;4.60;;;2.80;;
12756;SDS011;31601;48.042;12.240;2022-08-21T02:55:31;4.97;;;3.03;;
12756;SDS011;31601;48.042;12.240;2022-08-21T02:57:58;3.67;;;3.10;;
12756;SDS011;31601;48.042;12.240;2022-08-21T03:00:26;5.82;;;2.80;;
12756;SDS011;31601;48.042;12.240;2022-08-21T03:02:54;4.47;;;3.00;;
12756;SDS011;31601;48.042;12.240;2022-08-21T03:05:23;5.63;;;2.90;;
12756;SDS011;31601;48.042;12.240;2022-08-21T03:07:53;3.45;;;2.70;;
12756;SDS011;31601;48.042;12.240;2022-08-21T03:10:20;5.45;;;3.38;;
12756;SDS011;31601;48.042;12.240;2022-08-21T03:12:47;8.25;;;3.13;;
12756;SDS011;31601;48.042;12.240;2022-08-21T03:15:15;4.47;;;3.25;;
12756;SDS011;31601;48.042;12.240;2022-08-21T03:17:43;6.70;;;2.85;;
12756;SDS011;31601;48.042;12.240;2022-08-21T03:20:10;7.28;;;3.17;;
12756;SDS011;31601;48.042;12.240;2022-08-21T03:22:37;5.88;;;3.10;;
12756;SDS011;31601;48.042;12.240;2022-08-21T03:25:04;3.72;;;2.42;;
12756;SDS011;31601;48.042;12.240;2022-08-21T03:27:33;4.18;;;2.80;;
12756;SDS011;31601;48.042;12.240;2022-08-21T03:30:00;6.18;;;2.85;;
12756;SDS011;31601;48.042;12.240;2022-08-21T03:32:27;4.63;;;2.60;;
12756;SDS011;31601;48.042;12.240;2022-08-21T03:34:54;7.82;;;2.92;;
12756;SDS011;31601;48.042;12.240;2022-08-21T03:37:20;5.15;;;3.45;;
12756;SDS011;31601;48.042;12.240;2022-08-21T03:39:48;4.45;;;2.50;;
12756;SDS011;31601;48.042;12.240;2022-08-21T03:42:14;6.82;;;2.63;;
12756;SDS011;31601;48.042;12.240;2022-08-21T03:44:41;3.88;;;2.58;;
12756;SDS011;31601;48.042;12.240;2022-08-21T03:47:07;3.22;;;2.92;;
12756;SDS011;31601;48.042;12.240;2022-08-21T03:49:34;6.85;;;2.90;;
12756;SDS011;31601;48.042;12.240;2022-08-21T03:52:01;3.80;;;2.75;;
12756;SDS011;31601;48.042;12.240;2022-08-21T03:54:29;4.35;;;2.90;;
12756;SDS011;31601;48.042;12.240;2022-08-21T03:56:57;3.33;;;3.00;;
12756;SDS011;31601;48.042;12.240;2022-08-21T03:59:23;2.83;;;2.63;;
12756;SDS011;31601;48.042;12.240;2022-08-21T04:01:51;2.70;;;2.50;;
12756;SDS011;31601;48.042;12.240;2022-08-21T04:04:18;3.05;;;2.28;;
12756;SDS011;31601;48.042;12.240;2022-08-21T04:06:44;3.80;;;2.05;;
12756;SDS011;31601;48.042;12.240;2022-08-21T04:09:11;2.90;;;2.55;;
12756;SDS011;31601;48.042;12.240;2022-08-21T04:11:37;2.92;;;2.50;;
12756;SDS011;31601;48.042;12.240;2022-08-21T04:14:05;4.70;;;2.63;;
12756;SDS011;31601;48.042;12.240;2022-08-21T04:16:31;4.57;;;2.80;;
12756;SDS011;31601;48.042;12.240;2022-08-21T04:18:58;6.47;;;3.23;;
12756;SDS011;31601;48.042;12.240;2022-08-21T04:21:24;6.47;;;2.90;;
12756;SDS011;31601;48.042;12.240;2022-08-21T04:23:51;3.10;;;2.37;;
12756;SDS011;31601;48.042;12.240;2022-08-21T04:26:20;3.03;;;2.72;;
12756;SDS011;31601;48.042;12.240;2022-08-21T04:28:46;4.53;;;2.90;;
12756;SDS011;31601;48.042;12.240;2022-08-21T04:31:14;5.80;;;2.90;;
12756;SDS011;31601;48.042;12.240;2022-08-21T04:33:41;4.27;;;2.60;;
12756;SDS011;31601;48.042;12.240;2022-08-21T04:36:08;5.63;;;2.67;;
12756;SDS011;31601;48.042;12.240;2022-08-21T04:38:34;4.10;;;2.93;;
12756;SDS011;31601;48.042;12.240;2022-08-21T04:41:01;4.27;;;2.70;;
12756;SDS011;31601;48.042;12.240;2022-08-21T04:43:27;6.20;;;3.17;;
12756;SDS011;31601;48.042;12.240;2022-08-21T04:45:54;6.27;;;2.70;;
12756;SDS011;31601;48.042;12.240;2022-08-21T04:48:22;3.63;;;2.93;;
12756;SDS011;31601;48.042;12.240;2022-08-21T04:50:50;5.03;;;2.80;;
12756;SDS011;31601;48.042;12.240;2022-08-21T04:53:23;4.00;;;2.70;;
12756;SDS011;31601;48.042;12.240;2022-08-21T04:55:52;4.97;;;2.80;;
12756;SDS011;31601;48.042;12.240;2022-08-21T04:58:20;3.60;;;2.70;;
12756;SDS011;31601;48.042;12.240;2022-08-21T05:00:51;3.07;;;2.60;;
12756;SDS011;31601;48.042;12.240;2022-08-21T05:03:19;3.03;;;2.73;;
12756;SDS011;31601;48.042;12.240;2022-08-21T05:05:48;3.57;;;2.50;;
12756;SDS011;31601;48.042;12.240;2022-08-21T05:08:16;6.03;;;2.73;;
12756;SDS011;31601;48.042;12.240;2022-08-21T05:10:45;4.37;;;2.63;;
12756;SDS011;31601;48.042;12.240;2022-08-21T05:13:12;4.30;;;2.30;;
12756;SDS011;31601;48.042;12.240;2022-08-21T05:15:39;6.20;;;3.27;;
12756;SDS011;31601;48.042;12.240;2022-08-21T05:18:06;4.13;;;2.17;;
12756;SDS011;31601;48.042;12.240;2022-08-21T05:20:34;2.77;;;2.10;;
12756;SDS011;31601;48.042;12.240;2022-08-21T05:23:05;3.60;;;2.30;;
12756;SDS011;31601;48.042;12.240;2022-08-21T05:25:34;3.20;;;2.17;;
12756;SDS011;31601;48.042;12.240;2022-08-21T05:28:00;2.50;;;2.30;;
12756;SDS011;31601;48.042;12.240;2022-08-21T05:30:27;2.22;;;1.70;;
12756;SDS011;31601;48.042;12.240;2022-08-21T05:32:56;2.73;;;2.40;;
12756;SDS011;31601;48.042;12.240;2022-08-21T05:35:23;5.00;;;2.25;;
12756;SDS011;31601;48.042;12.240;2022-08-21T05:37:51;3.75;;;2.22;;
12756;SDS011;31601;48.042;12.240;2022-08-21T05:40:17;2.63;;;2.10;;
12756;SDS011;31601;48.042;12.240;2022-08-21T05:42:44;2.40;;;2.13;;
12756;SDS011;31601;48.042;12.240;2022-08-21T05:45:10;4.18;;;2.08;;
12756;SDS011;31601;48.042;12.240;2022-08-21T05:47:37;2.97;;;2.22;;
12756;SDS011;31601;48.042;12.240;2022-08-21T05:50:04;3.83;;;2.20;;
12756;SDS011;31601;48.042;12.240;2022-08-21T05:52:31;2.15;;;1.95;;
12756;SDS011;31601;48.042;12.240;2022-08-21T05:54:59;2.05;;;1.85;;
12756;SDS011;31601;48.042;12.240;2022-08-21T05:57:26;2.45;;;1.92;;
12756;SDS011;31601;48.042;12.240;2022-08-21T05:59:52;3.60;;;2.22;;
12756;SDS011;31601;48.042;12.240;2022-08-21T06:02:19;3.97;;;1.75;;
12756;SDS011;31601;48.042;12.240;2022-08-21T06:04:47;2.17;;;1.63;;
12756;SDS011;31601;48.042;12.240;2022-08-21T06:07:13;3.28;;;1.60;;
12756;SDS011;31601;48.042;12.240;2022-08-21T06:09:41;4.45;;;1.75;;
12756;SDS011;31601;48.042;12.240;2022-08-21T06:12:11;3.05;;;1.60;;
12756;SDS011;31601;48.042;12.240;2022-08-21T06:14:40;3.80;;;1.70;;
12756;SDS011;31601;48.042;12.240;2022-08-21T06:17:07;1.60;;;1.50;;
12756;SDS011;31601;48.042;12.240;2022-08-21T06:19:36;2.67;;;1.67;;
12756;SDS011;31601;48.042;12.240;2022-08-21T06:22:04;3.08;;;1.80;;
12756;SDS011;31601;48.042;12.240;2022-08-21T06:24:30;2.83;;;1.70;;
12756;SDS011;31601;48.042;12.240;2022-08-21T06:26:57;2.03;;;1.73;;
12756;SDS011;31601;48.042;12.240;2022-08-21T06:29:25;4.75;;;2.00;;
12756;SDS011;31601;48.042;12.240;2022-08-21T06:31:52;3.67;;;1.67;;
12756;SDS011;31601;48.042;12.240;2022-08-21T06:34:18;3.22;;;1.40;;
12756;SDS011;31601;48.042;12.240;2022-08-21T06:36:45;2.47;;;1.42;;
12756;SDS011;31601;48.042;12.240;2022-08-21T06:39:11;1.80;;;1.40;;
12756;SDS011;31601;48.042;12.240;2022-08-21T06:41:39;1.40;;;1.30;;
12756;SDS011;31601;48.042;12.240;2022-08-21T06:44:05;3.85;;;1.50;;
12756;SDS011;31601;48.042;12.240;2022-08-21T06:46:33;1.75;;;1.55;;
12756;SDS011;31601;48.042;12.240;2022-08-21T06:48:59;2.45;;;1.40;;
12756;SDS011;31601;48.042;12.240;2022-08-21T06:51:26;5.05;;;1.40;;
12756;SDS011;31601;48.042;12.240;2022-08-21T06:53:53;2.38;;;1.30;;
12756;SDS011;31601;48.042;12.240;2022-08-21T06:56:19;1.40;;;1.30;;
12756;SDS011;31601;48.042;12.240;2022-08-21T06:58:46;2.33;;;1.00;;
12756;SDS011;31601;48.042;12.240;2022-08-21T07:01:12;2.95;;;1.30;;
12756;SDS011;31601;48.042;12.240;2022-08-21T07:03:41;4.40;;;1.60;;
12756;SDS011;31601;48.042;12.240;2022-08-21T07:06:09;2.45;;;1.40;;
12756;SDS011;31601;48.042;12.240;2022-08-21T07:08:36;6.05;;;1.60;;
12756;SDS011;31601;48.042;12.240;2022-08-21T07:11:11;2.75;;;1.25;;
12756;SDS011;31601;48.042;12.240;2022-08-21T07:13:41;2.75;;;1.35;;
12756;SDS011;31601;48.042;12.240;2022-08-21T07:16:07;1.63;;;1.42;;
12756;SDS011;31601;48.042;12.240;2022-08-21T07:18:34;2.08;;;1.50;;
12756;SDS011;31601;48.042;12.240;2022-08-21T07:21:02;2.08;;;1.65;;
12756;SDS011;31601;48.042;12.240;2022-08-21T07:23:31;3.10;;;1.48;;
12756;SDS011;31601;48.042;12.240;2022-08-21T07:25:59;4.20;;;1.30;;
12756;SDS011;31601;48.042;12.240;2022-08-21T07:28:26;3.88;;;2.03;;
12756;SDS011;31601;48.042;12.240;2022-08-21T07:30:53;5.05;;;1.50;;
12756;SDS011;31601;48.042;12.240;2022-08-21T07:33:22;3.17;;;1.67;;
12756;SDS011;31601;48.042;12.240;2022-08-21T07:35:48;2.33;;;1.30;;
12756;SDS011;31601;48.042;12.240;2022-08-21T07:38:16;1.80;;;1.40;;
12756;SDS011;31601;48.042;12.240;2022-08-21T07:40:44;2.63;;;1.52;;
12756;SDS011;31601;48.042;12.240;2022-08-21T07:43:11;3.50;;;1.40;;
12756;SDS011;31601;48.042;12.240;2022-08-21T07:45:37;2.42;;;1.77;;
12756;SDS011;31601;48.042;12.240;2022-08-21T07:48:04;1.48;;;1.38;;
12756;SDS011;31601;48.042;12.240;2022-08-21T07:50:30;2.95;;;1.60;;
12756;SDS011;31601;48.042;12.240;2022-08-21T07:52:57;3.13;;;1.65;;
12756;SDS011;31601;48.042;12.240;2022-08-21T07:55:25;3.28;;;1.70;;
12756;SDS011;31601;48.042;12.240;2022-08-21T07:57:51;3.00;;;1.60;;
12756;SDS011;31601;48.042;12.240;2022-08-21T08:00:20;3.83;;;1.55;;
12756;SDS011;31601;48.042;12.240;2022-08-21T08:02:49;2.50;;;1.77;;
12756;SDS011;31601;48.042;12.240;2022-08-21T08:05:18;5.38;;;2.03;;
12756;SDS011;31601;48.042;12.240;2022-08-21T08:07:46;2.85;;;2.10;;
12756;SDS011;31601;48.042;12.240;2022-08-21T08:10:13;4.85;;;2.00;;
12756;SDS011;31601;48.042;12.240;2022-08-21T08:12:42;4.80;;;2.25;;
12756;SDS011;31601;48.042;12.240;2022-08-21T08:15:10;5.82;;;2.70;;
12756;SDS011;31601;48.042;12.240;2022-08-21T08:17:47;5.45;;;2.80;;
12756;SDS011;31601;48.042;12.240;2022-08-21T08:20:14;3.20;;;2.72;;
12756;SDS011;31601;48.042;12.240;2022-08-21T08:22:43;2.70;;;2.28;;
12756;SDS011;31601;48.042;12.240;2022-08-21T08:25:10;4.95;;;2.67;;
12756;SDS011;31601;48.042;12.240;2022-08-21T08:27:38;7.15;;;2.60;;
12756;SDS011;31601;48.042;12.240;2022-08-21T08:30:08;4.22;;;2.75;;
12756;SDS011;31601;48.042;12.240;2022-08-21T08:32:36;4.05;;;2.80;;
12756;SDS011;31601;48.042;12.240;2022-08-21T08:35:04;3.47;;;2.40;;
12756;SDS011;31601;48.042;12.240;2022-08-21T08:37:32;4.70;;;2.60;;
12756;SDS011;31601;48.042;12.240;2022-08-21T08:39:59;6.10;;;2.78;;
12756;SDS011;31601;48.042;12.240;2022-08-21T08:42:27;3.42;;;2.75;;
12756;SDS011;31601;48.042;12.240;2022-08-21T08:44:57;3.47;;;2.60;;
12756;SDS011;31601;48.042;12.240;2022-08-21T08:47:27;4.20;;;3.38;;
12756;SDS011;31601;48.042;12.240;2022-08-21T08:49:58;4.28;;;3.00;;
12756;SDS011;31601;48.042;12.240;2022-08-21T08:52:29;3.53;;;3.00;;
12756;SDS011;31601;48.042;12.240;2022-08-21T08:54:59;3.47;;;2.72;;
12756;SDS011;31601;48.042;12.240;2022-08-21T08:57:29;3.95;;;2.78;;
12756;SDS011;31601;48.042;12.240;2022-08-21T08:59:58;4.32;;;2.80;;
12756;SDS011;31601;48.042;12.240;2022-08-21T09:02:28;5.38;;;2.88;;
12756;SDS011;31601;48.042;12.240;2022-08-21T09:04:54;4.25;;;3.10;;
12756;SDS011;31601;48.042;12.240;2022-08-21T09:07:24;4.35;;;2.90;;
12756;SDS011;31601;48.042;12.240;2022-08-21T09:10:05;3.88;;;3.00;;
12756;SDS011;31601;48.042;12.240;2022-08-21T09:12:46;5.00;;;3.00;;
12756;SDS011;31601;48.042;12.240;2022-08-21T09:15:23;3.60;;;2.83;;
12756;SDS011;31601;48.042;12.240;2022-08-21T09:20:54;4.63;;;3.03;;
12756;SDS011;31601;48.042;12.240;2022-08-21T09:23:38;3.90;;;2.88;;
12756;SDS011;31601;48.042;12.240;2022-08-21T09:26:11;3.80;;;3.00;;
12756;SDS011;31601;48.042;12.240;2022-08-21T09:28:39;4.07;;;2.88;;
12756;SDS011;31601;48.042;12.240;2022-08-21T09:31:08;3.72;;;2.80;;
12756;SDS011;31601;48.042;12.240;2022-08-21T09:33:43;4.78;;;3.10;;
12756;SDS011;31601;48.042;12.240;2022-08-21T09:36:09;3.63;;;2.75;;
12756;SDS011;31601;48.042;12.240;2022-08-21T09:38:36;3.00;;;2.70;;
12756;SDS011;31601;48.042;12.240;2022-08-21T09:41:04;3.38;;;2.60;;
12756;SDS011;31601;48.042;12.240;2022-08-21T09:43:33;4.82;;;2.70;;
12756;SDS011;31601;48.042;12.240;2022-08-21T09:46:02;3.17;;;2.70;;
12756;SDS011;31601;48.042;12.240;2022-08-21T09:48:38;5.03;;;2.70;;
12756;SDS011;31601;48.042;12.240;2022-08-21T09:51:09;5.30;;;2.97;;
12756;SDS011;31601;48.042;12.240;2022-08-21T09:53:38;3.63;;;2.40;;
12756;SDS011;31601;48.042;12.240;2022-08-21T09:56:16;2.90;;;2.70;;
12756;SDS011;31601;48.042;12.240;2022-08-21T09:59:11;4.03;;;3.00;;
12756;SDS011;31601;48.042;12.240;2022-08-21T10:01:42;5.60;;;3.08;;
12756;SDS011;31601;48.042;12.240;2022-08-21T10:04:10;3.80;;;3.00;;
12756;SDS011;31601;48.042;12.240;2022-08-21T10:06:38;4.75;;;3.05;;
12756;SDS011;31601;48.042;12.240;2022-08-21T10:09:06;3.88;;;2.90;;
12756;SDS011;31601;48.042;12.240;2022-08-21T10:11:34;3.35;;;3.05;;
12756;SDS011;31601;48.042;12.240;2022-08-21T10:14:04;4.32;;;2.97;;
12756;SDS011;31601;48.042;12.240;2022-08-21T10:16:41;3.83;;;3.42;;
12756;SDS011;31601;48.042;12.240;2022-08-21T10:19:20;3.30;;;2.85;;
12756;SDS011;31601;48.042;12.240;2022-08-21T10:21:58;5.05;;;3.90;;
12756;SDS011;31601;48.042;12.240;2022-08-21T10:24:29;5.25;;;3.13;;
12756;SDS011;31601;48.042;12.240;2022-08-21T10:27:03;3.38;;;3.03;;
12756;SDS011;31601;48.042;12.240;2022-08-21T10:29:39;4.32;;;2.85;;
12756;SDS011;31601;48.042;12.240;2022-08-21T10:32:14;3.00;;;2.45;;
12756;SDS011;31601;48.042;12.240;2022-08-21T10:34:56;4.45;;;2.65;;
12756;SDS011;31601;48.042;12.240;2022-08-21T10:37:31;4.22;;;2.20;;
12756;SDS011;31601;48.042;12.240;2022-08-21T10:40:10;4.35;;;2.28;;
12756;SDS011;31601;48.042;12.240;2022-08-21T10:42:49;2.70;;;2.50;;
12756;SDS011;31601;48.042;12.240;2022-08-21T10:45:27;2.90;;;2.55;;
12756;SDS011;31601;48.042;12.240;2022-08-21T10:48:06;4.05;;;2.00;;
12756;SDS011;31601;48.042;12.240;2022-08-21T10:50:41;3.03;;;2.35;;
12756;SDS011;31601;48.042;12.240;2022-08-21T10:53:30;4.57;;;2.47;;
12756;SDS011;31601;48.042;12.240;2022-08-21T10:56:10;3.08;;;2.45;;
12756;SDS011;31601;48.042;12.240;2022-08-21T10:58:44;2.30;;;2.10;;
12756;SDS011;31601;48.042;12.240;2022-08-21T11:01:17;3.28;;;2.58;;
12756;SDS011;31601;48.042;12.240;2022-08-21T11:03:48;4.10;;;2.47;;
12756;SDS011;31601;48.042;12.240;2022-08-21T11:06:20;4.63;;;2.17;;
12756;SDS011;31601;48.042;12.240;2022-08-21T11:08:51;5.47;;;2.38;;
12756;SDS011;31601;48.042;12.240;2022-08-21T11:11:22;2.45;;;1.98;;
12756;SDS011;31601;48.042;12.240;2022-08-21T11:13:54;2.42;;;2.00;;
12756;SDS011;31601;48.042;12.240;2022-08-21T11:16:25;4.60;;;2.38;;
12756;SDS011;31601;48.042;12.240;2022-08-21T11:18:58;3.92;;;2.40;;
12756;SDS011;31601;48.042;12.240;2022-08-21T11:21:34;2.88;;;2.20;;
12756;SDS011;31601;48.042;12.240;2022-08-21T11:24:09;4.80;;;2.15;;
12756;SDS011;31601;48.042;12.240;2022-08-21T11:26:44;3.47;;;2.10;;
12756;SDS011;31601;48.042;12.240;2022-08-21T11:29:16;3.88;;;2.40;;
12756;SDS011;31601;48.042;12.240;2022-08-21T11:31:57;4.47;;;2.20;;
12756;SDS011;31601;48.042;12.240;2022-08-21T11:34:39;5.88;;;2.33;;
12756;SDS011;31601;48.042;12.240;2022-08-21T11:37:23;4.75;;;2.17;;
12756;SDS011;31601;48.042;12.240;2022-08-21T11:40:04;2.10;;;1.90;;
12756;SDS011;31601;48.042;12.240;2022-08-21T11:42:38;2.72;;;2.30;;
12756;SDS011;31601;48.042;12.240;2022-08-21T11:45:14;3.72;;;2.03;;
12756;SDS011;31601;48.042;12.240;2022-08-21T11:47:50;2.92;;;1.70;;
12756;SDS011;31601;48.042;12.240;2022-08-21T11:50:28;3.65;;;2.08;;
12756;SDS011;31601;48.042;12.240;2022-08-21T11:52:57;2.97;;;2.20;;
12756;SDS011;31601;48.042;12.240;2022-08-21T11:55:30;2.17;;;1.70;;
12756;SDS011;31601;48.042;12.240;2022-08-21T11:58:04;3.53;;;1.80;;
12756;SDS011;31601;48.042;12.240;2022-08-21T12:00:38;2.67;;;2.15;;
12756;SDS011;31601;48.042;12.240;2022-08-21T12:03:11;3.47;;;1.90;;
12756;SDS011;31601;48.042;12.240;2022-08-21T12:05:41;2.95;;;2.22;;
12756;SDS011;31601;48.042;12.240;2022-08-21T12:08:11;2.72;;;2.05;;
12756;SDS011;31601;48.042;12.240;2022-08-21T12:10:47;2.65;;;2.05;;
12756;SDS011;31601;48.042;12.240;2022-08-21T12:13:27;3.10;;;2.45;;
12756;SDS011;31601;48.042;12.240;2022-08-21T12:16:04;3.15;;;1.83;;
12756;SDS011;31601;48.042;12.240;2022-08-21T12:18:31;3.13;;;2.08;;
12756;SDS011;31601;48.042;12.240;2022-08-21T12:21:03;3.15;;;2.38;;
12756;SDS011;31601;48.042;12.240;2022-08-21T12:23:43;3.55;;;1.98;;
12756;SDS011;31601;48.042;12.240;2022-08-21T12:26:23;3.80;;;2.47;;
12756;SDS011;31601;48.042;12.240;2022-08-21T12:29:12;2.15;;;1.98;;
12756;SDS011;31601;48.042;12.240;2022-08-21T12:31:49;2.45;;;2.13;;
12756;SDS011;31601;48.042;12.240;2022-08-21T12:34:18;2.53;;;2.33;;
12756;SDS011;31601;48.042;12.240;2022-08-21T12:36:49;2.50;;;2.17;;
12756;SDS011;31601;48.042;12.240;2022-08-21T12:39:24;3.88;;;2.08;;
12756;SDS011;31601;48.042;12.240;2022-08-21T12:41:56;4.82;;;2.47;;
12756;SDS011;31601;48.042;12.240;2022-08-21T12:44:28;3.70;;;2.42;;
12756;SDS011;31601;48.042;12.240;2022-08-21T12:47:02;2.50;;;2.30;;
12756;SDS011;31601;48.042;12.240;2022-08-21T12:49:31;4.72;;;2.42;;
12756;SDS011;31601;48.042;12.240;2022-08-21T12:52:02;4.53;;;2.63;;
12756;SDS011;31601;48.042;12.240;2022-08-21T12:54:37;4.80;;;2.60;;
12756;SDS011;31601;48.042;12.240;2022-08-21T12:57:08;3.22;;;2.25;;
12756;SDS011;31601;48.042;12.240;2022-08-21T12:59:43;4.18;;;2.75;;
12756;SDS011;31601;48.042;12.240;2022-08-21T13:02:16;4.72;;;2.92;;
12756;SDS011;31601;48.042;12.240;2022-08-21T13:04:46;4.80;;;2.58;;
12756;SDS011;31601;48.042;12.240;2022-08-21T13:07:16;4.18;;;2.40;;
12756;SDS011;31601;48.042;12.240;2022-08-21T13:09:48;2.60;;;2.40;;
12756;SDS011;31601;48.042;12.240;2022-08-21T13:12:19;2.88;;;2.28;;
12756;SDS011;31601;48.042;12.240;2022-08-21T13:14:47;3.88;;;2.50;;
12756;SDS011;31601;48.042;12.240;2022-08-21T13:17:16;3.05;;;2.75;;
12756;SDS011;31601;48.042;12.240;2022-08-21T13:19:52;2.60;;;2.40;;
12756;SDS011;31601;48.042;12.240;2022-08-21T13:22:19;8.07;;;4.78;;
12756;SDS011;31601;48.042;12.240;2022-08-21T13:24:46;4.32;;;3.15;;
12756;SDS011;31601;48.042;12.240;2022-08-21T13:27:16;2.60;;;2.40;;
12756;SDS011;31601;48.042;12.240;2022-08-21T13:29:45;2.50;;;2.30;;
12756;SDS011;31601;48.042;12.240;2022-08-21T13:32:17;3.50;;;2.30;;
12756;SDS011;31601;48.042;12.240;2022-08-21T13:34:48;2.42;;;2.22;;
12756;SDS011;31601;48.042;12.240;2022-08-21T13:37:15;4.53;;;2.55;;
12756;SDS011;31601;48.042;12.240;2022-08-21T13:39:41;3.13;;;2.50;;
12756;SDS011;31601;48.042;12.240;2022-08-21T13:42:15;2.55;;;2.35;;
12756;SDS011;31601;48.042;12.240;2022-08-21T13:44:43;2.45;;;2.20;;
12756;SDS011;31601;48.042;12.240;2022-08-21T13:47:13;2.40;;;2.20;;
12756;SDS011;31601;48.042;12.240;2022-08-21T13:49:42;2.67;;;2.42;;
12756;SDS011;31601;48.042;12.240;2022-08-21T13:52:13;2.72;;;2.47;;
12756;SDS011;31601;48.042;12.240;2022-08-21T13:54:41;3.65;;;2.40;;
12756;SDS011;31601;48.042;12.240;2022-08-21T13:57:15;7.53;;;2.58;;
12756;SDS011;31601;48.042;12.240;2022-08-21T13:59:44;3.90;;;2.40;;
12756;SDS011;31601;48.042;12.240;2022-08-21T14:02:12;3.70;;;2.28;;
12756;SDS011;31601;48.042;12.240;2022-08-21T14:04:42;14.18;;;12.15;;
12756;SDS011;31601;48.042;12.240;2022-08-21T14:07:16;4.78;;;3.45;;
12756;SDS011;31601;48.042;12.240;2022-08-21T14:09:44;3.65;;;1.92;;
12756;SDS011;31601;48.042;12.240;2022-08-21T14:12:13;5.18;;;3.58;;
12756;SDS011;31601;48.042;12.240;2022-08-21T14:14:42;3.78;;;2.63;;
12756;SDS011;31601;48.042;12.240;2022-08-21T14:17:12;2.20;;;2.00;;
12756;SDS011;31601;48.042;12.240;2022-08-21T14:19:51;2.65;;;1.90;;
12756;SDS011;31601;48.042;12.240;2022-08-21T14:22:21;3.40;;;2.17;;
12756;SDS011;31601;48.042;12.240;2022-08-21T14:24:58;3.65;;;2.78;;
12756;SDS011;31601;48.042;12.240;2022-08-21T14:27:25;2.22;;;2.00;;
12756;SDS011;31601;48.042;12.240;2022-08-21T14:29:56;2.30;;;2.03;;
12756;SDS011;31601;48.042;12.240;2022-08-21T14:32:27;3.00;;;2.60;;
12756;SDS011;31601;48.042;12.240;2022-08-21T14:34:55;2.70;;;2.10;;
12756;SDS011;31601;48.042;12.240;2022-08-21T14:37:22;2.95;;;2.03;;
12756;SDS011;31601;48.042;12.240;2022-08-21T14:39:50;5.32;;;2.10;;
12756;SDS011;31601;48.042;12.240;2022-08-21T14:42:17;2.90;;;2.22;;
12756;SDS011;31601;48.042;12.240;2022-08-21T14:44:44;2.75;;;2.40;;
12756;SDS011;31601;48.042;12.240;2022-08-21T14:47:10;2.05;;;1.85;;
12756;SDS011;31601;48.042;12.240;2022-08-21T14:49:38;2.10;;;1.90;;